sensor_id;sensor_type;location;lat;lon;timestamp;temperature;humidity
3860;DHT22;1945;52.036;8.614;2023-06-14T00:01:35;16.00;1.00
3860;DHT22;1945;52.036;8.614;2023-06-14T00:04:03;15.90;1.00
3860;DHT22;1945;52.036;8.614;2023-06-14T00:06:31;15.90;1.00
3860;DHT22;1945;52.036;8.614;2023-06-14T00:08:59;15.70;1.00
3860;DHT22;1945;52.036;8.614;2023-06-14T00:11:25;15.70;1.00
3860;DHT22;1945;52.036;8.614;2023-06-14T00:13:53;15.50;1.00
3860;DHT22;1945;52.036;8.614;2023-06-14T00:16:21;15.50;1.00
3860;DHT22;1945;52.036;8.614;2023-06-14T00:18:48;15.50;1.00
3860;DHT22;1945;52.036;8.614;2023-06-14T00:21:17;15.40;1.00
3860;DHT22;1945;52.036;8.614;2023-06-14T00:23:45;15.30;1.00
3860;DHT22;1945;52.036;8.614;2023-06-14T00:26:12;15.20;1.00
3860;DHT22;1945;52.036;8.614;2023-06-14T00:28:39;15.20;1.00
3860;DHT22;1945;52.036;8.614;2023-06-14T00:31:06;15.10;13.10
3860;DHT22;1945;52.036;8.614;2023-06-14T00:33:34;15.10;22.30
3860;DHT22;1945;52.036;8.614;2023-06-14T00:36:02;15.00;49.00
3860;DHT22;1945;52.036;8.614;2023-06-14T00:38:28;15.00;54.40
3860;DHT22;1945;52.036;8.614;2023-06-14T00:40:55;14.80;99.90
3860;DHT22;1945;52.036;8.614;2023-06-14T00:43:22;14.90;99.90
3860;DHT22;1945;52.036;8.614;2023-06-14T00:45:48;14.90;99.90
3860;DHT22;1945;52.036;8.614;2023-06-14T00:48:17;14.70;99.90
3860;DHT22;1945;52.036;8.614;2023-06-14T00:50:45;14.60;99.90
3860;DHT22;1945;52.036;8.614;2023-06-14T00:53:14;14.60;99.90
3860;DHT22;1945;52.036;8.614;2023-06-14T00:55:43;14.60;99.90
3860;DHT22;1945;52.036;8.614;2023-06-14T00:58:10;14.60;46.50
3860;DHT22;1945;52.036;8.614;2023-06-14T01:00:37;14.60;87.50
3860;DHT22;1945;52.036;8.614;2023-06-14T01:03:03;14.50;99.90
3860;DHT22;1945;52.036;8.614;2023-06-14T01:05:30;14.40;99.90
3860;DHT22;1945;52.036;8.614;2023-06-14T01:08:10;14.30;99.90
3860;DHT22;1945;52.036;8.614;2023-06-14T01:10:46;14.20;99.90
3860;DHT22;1945;52.036;8.614;2023-06-14T01:13:19;14.20;99.90
3860;DHT22;1945;52.036;8.614;2023-06-14T01:15:47;14.20;99.90
3860;DHT22;1945;52.036;8.614;2023-06-14T01:18:14;14.10;99.90
3860;DHT22;1945;52.036;8.614;2023-06-14T01:20:44;14.00;99.90
3860;DHT22;1945;52.036;8.614;2023-06-14T01:23:16;14.00;99.90
3860;DHT22;1945;52.036;8.614;2023-06-14T01:25:43;13.90;99.90
3860;DHT22;1945;52.036;8.614;2023-06-14T01:28:11;13.90;99.90
3860;DHT22;1945;52.036;8.614;2023-06-14T01:30:40;13.90;99.90
3860;DHT22;1945;52.036;8.614;2023-06-14T01:33:11;13.80;99.90
3860;DHT22;1945;52.036;8.614;2023-06-14T01:35:39;13.80;99.90
3860;DHT22;1945;52.036;8.614;2023-06-14T01:38:07;13.70;99.90
3860;DHT22;1945;52.036;8.614;2023-06-14T01:40:36;13.70;99.90
3860;DHT22;1945;52.036;8.614;2023-06-14T01:43:04;13.60;99.90
3860;DHT22;1945;52.036;8.614;2023-06-14T01:45:33;13.60;99.90
3860;DHT22;1945;52.036;8.614;2023-06-14T01:48:00;13.50;99.90
3860;DHT22;1945;52.036;8.614;2023-06-14T01:50:28;13.50;99.90
3860;DHT22;1945;52.036;8.614;2023-06-14T01:52:58;13.50;99.90
3860;DHT22;1945;52.036;8.614;2023-06-14T01:55:25;13.50;99.90
3860;DHT22;1945;52.036;8.614;2023-06-14T01:57:54;13.40;99.90
3860;DHT22;1945;52.036;8.614;2023-06-14T02:00:21;13.50;99.90
3860;DHT22;1945;52.036;8.614;2023-06-14T02:02:47;13.40;99.90
3860;DHT22;1945;52.036;8.614;2023-06-14T02:05:15;13.40;99.90
3860;DHT22;1945;52.036;8.614;2023-06-14T02:07:44;13.30;99.90
3860;DHT22;1945;52.036;8.614;2023-06-14T02:10:11;13.30;99.90
3860;DHT22;1945;52.036;8.614;2023-06-14T02:12:37;13.20;99.90
3860;DHT22;1945;52.036;8.614;2023-06-14T02:15:06;13.20;99.90
3860;DHT22;1945;52.036;8.614;2023-06-14T02:17:33;13.20;99.90
3860;DHT22;1945;52.036;8.614;2023-06-14T02:20:00;13.10;99.90
3860;DHT22;1945;52.036;8.614;2023-06-14T02:22:30;13.00;99.90
3860;DHT22;1945;52.036;8.614;2023-06-14T02:24:57;13.00;99.90
3860;DHT22;1945;52.036;8.614;2023-06-14T02:27:24;12.90;99.90
3860;DHT22;1945;52.036;8.614;2023-06-14T02:29:50;12.90;99.90
3860;DHT22;1945;52.036;8.614;2023-06-14T02:32:18;12.90;99.90
3860;DHT22;1945;52.036;8.614;2023-06-14T02:34:45;12.80;99.90
3860;DHT22;1945;52.036;8.614;2023-06-14T02:37:15;12.80;99.90
3860;DHT22;1945;52.036;8.614;2023-06-14T02:39:42;12.70;99.90
3860;DHT22;1945;52.036;8.614;2023-06-14T02:42:08;12.70;99.90
3860;DHT22;1945;52.036;8.614;2023-06-14T02:44:35;12.60;99.90
3860;DHT22;1945;52.036;8.614;2023-06-14T02:47:02;12.70;99.90
3860;DHT22;1945;52.036;8.614;2023-06-14T02:49:33;12.70;99.90
3860;DHT22;1945;52.036;8.614;2023-06-14T02:52:00;12.60;99.90
3860;DHT22;1945;52.036;8.614;2023-06-14T02:54:26;12.60;99.90
3860;DHT22;1945;52.036;8.614;2023-06-14T02:56:53;12.60;99.90
3860;DHT22;1945;52.036;8.614;2023-06-14T02:59:19;12.50;99.90
3860;DHT22;1945;52.036;8.614;2023-06-14T03:01:46;12.50;99.90
3860;DHT22;1945;52.036;8.614;2023-06-14T03:04:13;12.60;99.90
3860;DHT22;1945;52.036;8.614;2023-06-14T03:06:42;12.50;99.90
3860;DHT22;1945;52.036;8.614;2023-06-14T03:09:15;12.50;99.90
3860;DHT22;1945;52.036;8.614;2023-06-14T03:11:42;12.50;99.90
3860;DHT22;1945;52.036;8.614;2023-06-14T03:14:12;12.30;99.90
3860;DHT22;1945;52.036;8.614;2023-06-14T03:16:39;12.30;99.90
3860;DHT22;1945;52.036;8.614;2023-06-14T03:19:06;12.30;99.90
3860;DHT22;1945;52.036;8.614;2023-06-14T03:21:33;12.30;99.90
3860;DHT22;1945;52.036;8.614;2023-06-14T03:24:01;12.40;99.90
3860;DHT22;1945;52.036;8.614;2023-06-14T03:26:28;12.70;99.90
3860;DHT22;1945;52.036;8.614;2023-06-14T03:28:56;13.00;99.90
3860;DHT22;1945;52.036;8.614;2023-06-14T03:31:23;13.20;99.90
3860;DHT22;1945;52.036;8.614;2023-06-14T03:33:50;13.40;99.90
3860;DHT22;1945;52.036;8.614;2023-06-14T03:36:16;13.70;99.90
3860;DHT22;1945;52.036;8.614;2023-06-14T03:38:46;13.90;99.90
3860;DHT22;1945;52.036;8.614;2023-06-14T03:41:14;14.10;99.90
3860;DHT22;1945;52.036;8.614;2023-06-14T03:43:41;14.20;99.90
3860;DHT22;1945;52.036;8.614;2023-06-14T03:46:08;14.50;30.90
3860;DHT22;1945;52.036;8.614;2023-06-14T03:48:34;14.60;1.00
3860;DHT22;1945;52.036;8.614;2023-06-14T03:51:01;14.90;1.00
3860;DHT22;1945;52.036;8.614;2023-06-14T03:53:28;15.10;1.00
3860;DHT22;1945;52.036;8.614;2023-06-14T03:55:55;15.30;1.00
3860;DHT22;1945;52.036;8.614;2023-06-14T03:58:23;15.50;1.00
3860;DHT22;1945;52.036;8.614;2023-06-14T04:00:50;15.70;1.00
3860;DHT22;1945;52.036;8.614;2023-06-14T04:03:17;16.00;1.00
3860;DHT22;1945;52.036;8.614;2023-06-14T04:05:45;16.10;1.00
3860;DHT22;1945;52.036;8.614;2023-06-14T04:08:14;16.40;1.00
3860;DHT22;1945;52.036;8.614;2023-06-14T04:10:41;16.60;1.00
3860;DHT22;1945;52.036;8.614;2023-06-14T04:13:08;16.90;1.00
3860;DHT22;1945;52.036;8.614;2023-06-14T04:15:39;17.20;1.00
3860;DHT22;1945;52.036;8.614;2023-06-14T04:18:09;17.40;1.00
3860;DHT22;1945;52.036;8.614;2023-06-14T04:20:35;17.70;1.00
3860;DHT22;1945;52.036;8.614;2023-06-14T04:23:11;18.00;1.00
3860;DHT22;1945;52.036;8.614;2023-06-14T04:25:38;18.20;1.00
3860;DHT22;1945;52.036;8.614;2023-06-14T04:28:05;18.30;99.90
3860;DHT22;1945;52.036;8.614;2023-06-14T04:30:34;18.80;99.90
3860;DHT22;1945;52.036;8.614;2023-06-14T04:33:05;19.00;1.00
3860;DHT22;1945;52.036;8.614;2023-06-14T04:35:31;19.20;99.90
3860;DHT22;1945;52.036;8.614;2023-06-14T04:38:01;19.60;99.90
3860;DHT22;1945;52.036;8.614;2023-06-14T04:40:38;19.80;99.90
3860;DHT22;1945;52.036;8.614;2023-06-14T04:43:08;20.20;99.90
3860;DHT22;1945;52.036;8.614;2023-06-14T04:45:37;20.60;99.90
3860;DHT22;1945;52.036;8.614;2023-06-14T04:48:05;20.80;99.90
3860;DHT22;1945;52.036;8.614;2023-06-14T04:50:32;21.00;99.90
3860;DHT22;1945;52.036;8.614;2023-06-14T04:53:00;20.90;1.00
3860;DHT22;1945;52.036;8.614;2023-06-14T04:55:27;21.20;1.00
3860;DHT22;1945;52.036;8.614;2023-06-14T04:57:55;21.50;1.00
3860;DHT22;1945;52.036;8.614;2023-06-14T05:00:21;21.60;1.00
3860;DHT22;1945;52.036;8.614;2023-06-14T05:02:48;21.90;1.00
3860;DHT22;1945;52.036;8.614;2023-06-14T05:05:18;22.30;1.00
3860;DHT22;1945;52.036;8.614;2023-06-14T05:07:45;22.30;1.00
3860;DHT22;1945;52.036;8.614;2023-06-14T05:10:12;22.60;1.00
3860;DHT22;1945;52.036;8.614;2023-06-14T05:12:39;22.90;1.00
3860;DHT22;1945;52.036;8.614;2023-06-14T05:15:08;22.70;1.00
3860;DHT22;1945;52.036;8.614;2023-06-14T05:17:36;23.00;1.00
3860;DHT22;1945;52.036;8.614;2023-06-14T05:20:03;22.90;1.00
3860;DHT22;1945;52.036;8.614;2023-06-14T05:22:30;23.30;1.00
3860;DHT22;1945;52.036;8.614;2023-06-14T05:24:57;23.70;1.00
3860;DHT22;1945;52.036;8.614;2023-06-14T05:27:24;23.90;1.00
3860;DHT22;1945;52.036;8.614;2023-06-14T05:29:51;23.60;1.00
3860;DHT22;1945;52.036;8.614;2023-06-14T05:32:22;23.50;1.00
3860;DHT22;1945;52.036;8.614;2023-06-14T05:34:49;23.70;1.00
3860;DHT22;1945;52.036;8.614;2023-06-14T05:37:15;23.40;1.00
3860;DHT22;1945;52.036;8.614;2023-06-14T05:39:42;23.20;1.00
3860;DHT22;1945;52.036;8.614;2023-06-14T05:42:09;23.50;1.00
3860;DHT22;1945;52.036;8.614;2023-06-14T05:44:36;23.50;1.00
3860;DHT22;1945;52.036;8.614;2023-06-14T05:47:03;23.20;1.00
3860;DHT22;1945;52.036;8.614;2023-06-14T05:49:31;23.20;1.00
3860;DHT22;1945;52.036;8.614;2023-06-14T05:51:58;22.90;1.00
3860;DHT22;1945;52.036;8.614;2023-06-14T05:54:25;23.00;1.00
3860;DHT22;1945;52.036;8.614;2023-06-14T05:56:51;23.20;1.00
3860;DHT22;1945;52.036;8.614;2023-06-14T05:59:18;23.40;1.00
3860;DHT22;1945;52.036;8.614;2023-06-14T06:01:45;23.50;1.00
3860;DHT22;1945;52.036;8.614;2023-06-14T06:04:11;22.60;1.00
3860;DHT22;1945;52.036;8.614;2023-06-14T06:06:39;23.00;1.00
3860;DHT22;1945;52.036;8.614;2023-06-14T06:09:06;23.30;1.00
3860;DHT22;1945;52.036;8.614;2023-06-14T06:11:33;23.60;1.00
3860;DHT22;1945;52.036;8.614;2023-06-14T06:14:00;23.50;1.00
3860;DHT22;1945;52.036;8.614;2023-06-14T06:16:27;23.40;1.00
3860;DHT22;1945;52.036;8.614;2023-06-14T06:18:53;23.00;1.00
3860;DHT22;1945;52.036;8.614;2023-06-14T06:21:20;23.30;1.00
3860;DHT22;1945;52.036;8.614;2023-06-14T06:23:48;22.80;1.00
3860;DHT22;1945;52.036;8.614;2023-06-14T06:26:15;23.00;1.00
3860;DHT22;1945;52.036;8.614;2023-06-14T06:28:42;23.10;1.00
3860;DHT22;1945;52.036;8.614;2023-06-14T06:31:08;22.90;1.00
3860;DHT22;1945;52.036;8.614;2023-06-14T06:33:36;23.00;1.00
3860;DHT22;1945;52.036;8.614;2023-06-14T06:36:05;23.30;1.00
3860;DHT22;1945;52.036;8.614;2023-06-14T06:38:31;23.00;1.00
3860;DHT22;1945;52.036;8.614;2023-06-14T06:41:00;22.90;1.00
3860;DHT22;1945;52.036;8.614;2023-06-14T06:43:26;23.10;1.00
3860;DHT22;1945;52.036;8.614;2023-06-14T06:45:53;23.20;1.00
3860;DHT22;1945;52.036;8.614;2023-06-14T06:48:20;23.20;1.00
3860;DHT22;1945;52.036;8.614;2023-06-14T06:50:46;23.20;1.00
3860;DHT22;1945;52.036;8.614;2023-06-14T06:53:13;23.60;1.00
3860;DHT22;1945;52.036;8.614;2023-06-14T06:55:40;23.40;1.00
3860;DHT22;1945;52.036;8.614;2023-06-14T06:58:11;23.60;1.00
3860;DHT22;1945;52.036;8.614;2023-06-14T07:00:38;23.90;1.00
3860;DHT22;1945;52.036;8.614;2023-06-14T07:03:05;23.50;1.00
3860;DHT22;1945;52.036;8.614;2023-06-14T07:05:32;23.90;1.00
3860;DHT22;1945;52.036;8.614;2023-06-14T07:07:58;23.70;1.00
3860;DHT22;1945;52.036;8.614;2023-06-14T07:10:25;23.80;1.00
3860;DHT22;1945;52.036;8.614;2023-06-14T07:12:52;23.70;1.00
3860;DHT22;1945;52.036;8.614;2023-06-14T07:15:20;22.70;1.00
3860;DHT22;1945;52.036;8.614;2023-06-14T07:17:46;23.50;1.00
3860;DHT22;1945;52.036;8.614;2023-06-14T07:20:13;23.30;1.00
3860;DHT22;1945;52.036;8.614;2023-06-14T07:22:41;23.20;1.00
3860;DHT22;1945;52.036;8.614;2023-06-14T07:25:09;22.80;1.00
3860;DHT22;1945;52.036;8.614;2023-06-14T07:27:38;23.90;1.00
3860;DHT22;1945;52.036;8.614;2023-06-14T07:30:06;24.10;1.00
3860;DHT22;1945;52.036;8.614;2023-06-14T07:32:35;23.60;1.00
3860;DHT22;1945;52.036;8.614;2023-06-14T07:35:02;23.60;1.00
3860;DHT22;1945;52.036;8.614;2023-06-14T07:37:29;23.80;1.00
3860;DHT22;1945;52.036;8.614;2023-06-14T07:39:56;23.60;1.00
3860;DHT22;1945;52.036;8.614;2023-06-14T07:42:22;23.30;1.00
3860;DHT22;1945;52.036;8.614;2023-06-14T07:44:49;23.40;1.00
3860;DHT22;1945;52.036;8.614;2023-06-14T07:47:17;23.10;1.00
3860;DHT22;1945;52.036;8.614;2023-06-14T07:49:45;23.20;1.00
3860;DHT22;1945;52.036;8.614;2023-06-14T07:52:12;23.80;1.00
3860;DHT22;1945;52.036;8.614;2023-06-14T07:54:39;23.90;1.00
3860;DHT22;1945;52.036;8.614;2023-06-14T07:57:06;24.00;1.00
3860;DHT22;1945;52.036;8.614;2023-06-14T07:59:34;23.70;1.00
3860;DHT22;1945;52.036;8.614;2023-06-14T08:02:00;24.10;1.00
3860;DHT22;1945;52.036;8.614;2023-06-14T08:04:27;23.90;1.00
3860;DHT22;1945;52.036;8.614;2023-06-14T08:06:55;23.00;1.00
3860;DHT22;1945;52.036;8.614;2023-06-14T08:09:22;23.20;1.00
3860;DHT22;1945;52.036;8.614;2023-06-14T08:11:50;22.80;1.00
3860;DHT22;1945;52.036;8.614;2023-06-14T08:14:17;22.70;1.00
3860;DHT22;1945;52.036;8.614;2023-06-14T08:16:43;22.70;1.00
3860;DHT22;1945;52.036;8.614;2023-06-14T08:19:10;22.40;1.00
3860;DHT22;1945;52.036;8.614;2023-06-14T08:21:37;23.00;1.00
3860;DHT22;1945;52.036;8.614;2023-06-14T08:24:06;23.30;1.00
3860;DHT22;1945;52.036;8.614;2023-06-14T08:26:32;23.30;1.00
3860;DHT22;1945;52.036;8.614;2023-06-14T08:28:59;22.80;1.00
3860;DHT22;1945;52.036;8.614;2023-06-14T08:31:26;22.40;1.00
3860;DHT22;1945;52.036;8.614;2023-06-14T08:33:53;21.90;1.00
3860;DHT22;1945;52.036;8.614;2023-06-14T08:36:20;21.20;1.00
3860;DHT22;1945;52.036;8.614;2023-06-14T08:38:48;21.70;1.00
3860;DHT22;1945;52.036;8.614;2023-06-14T08:41:20;21.80;1.00
3860;DHT22;1945;52.036;8.614;2023-06-14T08:43:48;22.20;1.00
3860;DHT22;1945;52.036;8.614;2023-06-14T08:46:17;21.60;1.00
3860;DHT22;1945;52.036;8.614;2023-06-14T08:48:46;21.90;1.00
3860;DHT22;1945;52.036;8.614;2023-06-14T08:51:13;21.70;1.00
3860;DHT22;1945;52.036;8.614;2023-06-14T08:53:42;21.70;1.00
3860;DHT22;1945;52.036;8.614;2023-06-14T08:56:09;21.80;1.00
3860;DHT22;1945;52.036;8.614;2023-06-14T08:58:40;21.80;1.00
3860;DHT22;1945;52.036;8.614;2023-06-14T09:01:09;21.70;1.00
3860;DHT22;1945;52.036;8.614;2023-06-14T09:03:37;21.40;1.00
3860;DHT22;1945;52.036;8.614;2023-06-14T09:06:06;21.70;1.00
3860;DHT22;1945;52.036;8.614;2023-06-14T09:08:34;21.60;1.00
3860;DHT22;1945;52.036;8.614;2023-06-14T09:11:01;21.60;1.00
3860;DHT22;1945;52.036;8.614;2023-06-14T09:13:28;20.90;1.00
3860;DHT22;1945;52.036;8.614;2023-06-14T09:15:56;21.30;1.00
3860;DHT22;1945;52.036;8.614;2023-06-14T09:18:34;21.10;1.00
3860;DHT22;1945;52.036;8.614;2023-06-14T09:21:01;21.70;1.00
3860;DHT22;1945;52.036;8.614;2023-06-14T09:23:27;21.30;1.00
3860;DHT22;1945;52.036;8.614;2023-06-14T09:25:54;21.70;1.00
3860;DHT22;1945;52.036;8.614;2023-06-14T09:28:26;22.20;1.00
3860;DHT22;1945;52.036;8.614;2023-06-14T09:30:54;22.00;1.00
3860;DHT22;1945;52.036;8.614;2023-06-14T09:33:22;21.90;1.00
3860;DHT22;1945;52.036;8.614;2023-06-14T09:35:51;21.60;1.00
3860;DHT22;1945;52.036;8.614;2023-06-14T09:38:18;21.50;1.00
3860;DHT22;1945;52.036;8.614;2023-06-14T09:40:45;21.70;1.00
3860;DHT22;1945;52.036;8.614;2023-06-14T09:43:12;21.60;1.00
3860;DHT22;1945;52.036;8.614;2023-06-14T09:45:39;22.00;1.00
3860;DHT22;1945;52.036;8.614;2023-06-14T09:48:06;22.30;1.00
3860;DHT22;1945;52.036;8.614;2023-06-14T09:50:35;22.50;1.00
3860;DHT22;1945;52.036;8.614;2023-06-14T09:53:04;22.20;1.00
3860;DHT22;1945;52.036;8.614;2023-06-14T09:55:35;22.50;1.00
3860;DHT22;1945;52.036;8.614;2023-06-14T09:58:05;22.20;1.00
3860;DHT22;1945;52.036;8.614;2023-06-14T10:00:32;22.10;1.00
3860;DHT22;1945;52.036;8.614;2023-06-14T10:03:03;22.30;1.00
3860;DHT22;1945;52.036;8.614;2023-06-14T10:05:32;22.60;1.00
3860;DHT22;1945;52.036;8.614;2023-06-14T10:08:04;22.40;1.00
3860;DHT22;1945;52.036;8.614;2023-06-14T10:10:34;22.20;1.00
3860;DHT22;1945;52.036;8.614;2023-06-14T10:13:01;22.50;1.00
3860;DHT22;1945;52.036;8.614;2023-06-14T10:15:32;22.30;1.00
3860;DHT22;1945;52.036;8.614;2023-06-14T10:18:03;22.60;1.00
3860;DHT22;1945;52.036;8.614;2023-06-14T10:20:37;22.60;1.00
3860;DHT22;1945;52.036;8.614;2023-06-14T10:23:11;22.10;1.00
3860;DHT22;1945;52.036;8.614;2023-06-14T10:25:39;22.40;1.00
3860;DHT22;1945;52.036;8.614;2023-06-14T10:28:17;21.50;1.00
3860;DHT22;1945;52.036;8.614;2023-06-14T10:31:05;22.10;1.00
3860;DHT22;1945;52.036;8.614;2023-06-14T10:33:32;22.50;1.00
3860;DHT22;1945;52.036;8.614;2023-06-14T10:36:10;22.60;1.00
3860;DHT22;1945;52.036;8.614;2023-06-14T10:38:58;22.80;1.00
3860;DHT22;1945;52.036;8.614;2023-06-14T10:41:27;22.50;1.00
3860;DHT22;1945;52.036;8.614;2023-06-14T10:46:54;21.90;1.00
3860;DHT22;1945;52.036;8.614;2023-06-14T10:49:37;22.40;1.00
3860;DHT22;1945;52.036;8.614;2023-06-14T10:52:08;22.50;1.00
3860;DHT22;1945;52.036;8.614;2023-06-14T10:54:38;22.80;1.00
3860;DHT22;1945;52.036;8.614;2023-06-14T10:57:15;22.70;1.00
3860;DHT22;1945;52.036;8.614;2023-06-14T10:59:41;22.80;1.00
3860;DHT22;1945;52.036;8.614;2023-06-14T11:02:27;22.90;1.00
3860;DHT22;1945;52.036;8.614;2023-06-14T11:05:03;23.10;1.00
3860;DHT22;1945;52.036;8.614;2023-06-14T11:07:42;22.90;1.00
3860;DHT22;1945;52.036;8.614;2023-06-14T11:10:23;22.60;1.00
3860;DHT22;1945;52.036;8.614;2023-06-14T11:12:55;22.40;1.00
3860;DHT22;1945;52.036;8.614;2023-06-14T11:15:28;22.30;1.00
3860;DHT22;1945;52.036;8.614;2023-06-14T11:17:55;22.70;1.00
3860;DHT22;1945;52.036;8.614;2023-06-14T11:20:25;22.70;1.00
3860;DHT22;1945;52.036;8.614;2023-06-14T11:22:53;22.80;1.00
3860;DHT22;1945;52.036;8.614;2023-06-14T11:25:21;22.70;1.00
3860;DHT22;1945;52.036;8.614;2023-06-14T11:27:49;22.70;1.00
3860;DHT22;1945;52.036;8.614;2023-06-14T11:30:17;22.80;1.00
3860;DHT22;1945;52.036;8.614;2023-06-14T11:32:46;23.00;1.00
3860;DHT22;1945;52.036;8.614;2023-06-14T11:35:13;22.60;1.00
3860;DHT22;1945;52.036;8.614;2023-06-14T11:37:40;22.50;1.00
3860;DHT22;1945;52.036;8.614;2023-06-14T11:40:09;22.50;1.00
3860;DHT22;1945;52.036;8.614;2023-06-14T11:42:40;22.60;1.00
3860;DHT22;1945;52.036;8.614;2023-06-14T11:45:08;23.10;1.00
3860;DHT22;1945;52.036;8.614;2023-06-14T11:47:36;23.20;1.00
3860;DHT22;1945;52.036;8.614;2023-06-14T11:50:04;23.40;1.00
3860;DHT22;1945;52.036;8.614;2023-06-14T11:52:32;23.70;1.00
3860;DHT22;1945;52.036;8.614;2023-06-14T11:54:59;23.60;1.00
3860;DHT22;1945;52.036;8.614;2023-06-14T11:57:26;23.50;1.00
3860;DHT22;1945;52.036;8.614;2023-06-14T11:59:54;23.60;1.00
3860;DHT22;1945;52.036;8.614;2023-06-14T12:02:22;23.50;1.00
3860;DHT22;1945;52.036;8.614;2023-06-14T12:04:50;23.10;1.00
3860;DHT22;1945;52.036;8.614;2023-06-14T12:07:19;23.50;1.00
3860;DHT22;1945;52.036;8.614;2023-06-14T12:10:07;23.50;1.00
3860;DHT22;1945;52.036;8.614;2023-06-14T12:12:37;23.20;1.00
3860;DHT22;1945;52.036;8.614;2023-06-14T12:15:06;23.60;1.00
3860;DHT22;1945;52.036;8.614;2023-06-14T12:17:34;23.60;1.00
3860;DHT22;1945;52.036;8.614;2023-06-14T12:20:05;23.60;1.00
3860;DHT22;1945;52.036;8.614;2023-06-14T12:22:36;23.70;1.00
3860;DHT22;1945;52.036;8.614;2023-06-14T12:25:03;23.30;1.00
3860;DHT22;1945;52.036;8.614;2023-06-14T12:27:30;23.60;1.00
3860;DHT22;1945;52.036;8.614;2023-06-14T12:30:01;23.90;1.00
3860;DHT22;1945;52.036;8.614;2023-06-14T12:32:29;24.20;1.00
3860;DHT22;1945;52.036;8.614;2023-06-14T12:34:56;23.70;1.00
3860;DHT22;1945;52.036;8.614;2023-06-14T12:37:22;23.60;1.00
3860;DHT22;1945;52.036;8.614;2023-06-14T12:39:49;23.60;1.00
3860;DHT22;1945;52.036;8.614;2023-06-14T12:42:17;23.80;1.00
3860;DHT22;1945;52.036;8.614;2023-06-14T12:44:43;23.80;1.00
3860;DHT22;1945;52.036;8.614;2023-06-14T12:47:10;23.20;1.00
3860;DHT22;1945;52.036;8.614;2023-06-14T12:49:38;23.40;1.00
3860;DHT22;1945;52.036;8.614;2023-06-14T12:52:06;23.90;1.00
3860;DHT22;1945;52.036;8.614;2023-06-14T12:54:33;23.50;1.00
3860;DHT22;1945;52.036;8.614;2023-06-14T12:56:59;23.80;1.00
3860;DHT22;1945;52.036;8.614;2023-06-14T12:59:26;23.80;1.00
3860;DHT22;1945;52.036;8.614;2023-06-14T13:01:59;24.00;1.00
3860;DHT22;1945;52.036;8.614;2023-06-14T13:04:25;24.10;1.00
3860;DHT22;1945;52.036;8.614;2023-06-14T13:06:53;23.70;1.00
3860;DHT22;1945;52.036;8.614;2023-06-14T13:09:20;23.80;1.00
3860;DHT22;1945;52.036;8.614;2023-06-14T13:11:47;23.80;1.00
3860;DHT22;1945;52.036;8.614;2023-06-14T13:14:13;23.70;1.00
3860;DHT22;1945;52.036;8.614;2023-06-14T13:16:40;23.90;1.00
3860;DHT22;1945;52.036;8.614;2023-06-14T13:19:07;23.10;1.00
3860;DHT22;1945;52.036;8.614;2023-06-14T13:21:34;23.20;1.00
3860;DHT22;1945;52.036;8.614;2023-06-14T13:24:02;23.80;1.00
3860;DHT22;1945;52.036;8.614;2023-06-14T13:26:28;24.00;1.00
3860;DHT22;1945;52.036;8.614;2023-06-14T13:28:55;23.30;1.00
3860;DHT22;1945;52.036;8.614;2023-06-14T13:31:22;23.10;1.00
3860;DHT22;1945;52.036;8.614;2023-06-14T13:33:48;22.90;1.00
3860;DHT22;1945;52.036;8.614;2023-06-14T13:36:15;22.80;1.00
3860;DHT22;1945;52.036;8.614;2023-06-14T13:38:42;23.10;1.00
3860;DHT22;1945;52.036;8.614;2023-06-14T13:41:10;23.50;1.00
3860;DHT22;1945;52.036;8.614;2023-06-14T13:43:36;23.70;1.00
3860;DHT22;1945;52.036;8.614;2023-06-14T13:46:03;23.90;1.00
3860;DHT22;1945;52.036;8.614;2023-06-14T13:48:30;24.20;1.00
3860;DHT22;1945;52.036;8.614;2023-06-14T13:50:59;23.90;1.00
3860;DHT22;1945;52.036;8.614;2023-06-14T13:53:25;24.10;1.00
3860;DHT22;1945;52.036;8.614;2023-06-14T13:55:52;24.20;1.00
3860;DHT22;1945;52.036;8.614;2023-06-14T13:58:20;24.10;1.00
3860;DHT22;1945;52.036;8.614;2023-06-14T14:00:48;23.80;1.00
3860;DHT22;1945;52.036;8.614;2023-06-14T14:03:15;23.70;1.00
3860;DHT22;1945;52.036;8.614;2023-06-14T14:05:42;23.80;1.00
3860;DHT22;1945;52.036;8.614;2023-06-14T14:08:09;23.70;1.00
3860;DHT22;1945;52.036;8.614;2023-06-14T14:10:35;24.00;1.00
3860;DHT22;1945;52.036;8.614;2023-06-14T14:13:02;23.60;1.00
3860;DHT22;1945;52.036;8.614;2023-06-14T14:15:30;23.70;1.00
3860;DHT22;1945;52.036;8.614;2023-06-14T14:18:00;23.40;1.00
3860;DHT22;1945;52.036;8.614;2023-06-14T14:20:29;23.10;1.00
3860;DHT22;1945;52.036;8.614;2023-06-14T14:22:56;23.10;1.00
3860;DHT22;1945;52.036;8.614;2023-06-14T14:25:22;23.30;1.00
3860;DHT22;1945;52.036;8.614;2023-06-14T14:27:49;23.50;1.00
3860;DHT22;1945;52.036;8.614;2023-06-14T14:30:16;23.60;1.00
3860;DHT22;1945;52.036;8.614;2023-06-14T14:32:46;23.50;1.00
3860;DHT22;1945;52.036;8.614;2023-06-14T14:35:13;23.40;1.00
3860;DHT22;1945;52.036;8.614;2023-06-14T14:37:40;23.40;1.00
3860;DHT22;1945;52.036;8.614;2023-06-14T14:40:08;23.10;1.00
3860;DHT22;1945;52.036;8.614;2023-06-14T14:42:35;22.90;1.00
3860;DHT22;1945;52.036;8.614;2023-06-14T14:45:02;23.00;1.00
3860;DHT22;1945;52.036;8.614;2023-06-14T14:47:29;23.00;1.00
3860;DHT22;1945;52.036;8.614;2023-06-14T14:49:57;23.20;1.00
3860;DHT22;1945;52.036;8.614;2023-06-14T14:52:23;23.40;1.00
3860;DHT22;1945;52.036;8.614;2023-06-14T14:54:52;23.70;1.00
3860;DHT22;1945;52.036;8.614;2023-06-14T14:57:19;23.70;1.00
3860;DHT22;1945;52.036;8.614;2023-06-14T14:59:46;23.60;1.00
3860;DHT22;1945;52.036;8.614;2023-06-14T15:02:12;23.80;1.00
3860;DHT22;1945;52.036;8.614;2023-06-14T15:04:39;23.90;1.00
3860;DHT22;1945;52.036;8.614;2023-06-14T15:07:07;23.80;1.00
3860;DHT22;1945;52.036;8.614;2023-06-14T15:09:33;23.80;1.00
3860;DHT22;1945;52.036;8.614;2023-06-14T15:12:00;23.50;1.00
3860;DHT22;1945;52.036;8.614;2023-06-14T15:14:27;23.60;1.00
3860;DHT22;1945;52.036;8.614;2023-06-14T15:16:54;23.60;1.00
3860;DHT22;1945;52.036;8.614;2023-06-14T15:19:20;23.50;1.00
3860;DHT22;1945;52.036;8.614;2023-06-14T15:21:47;23.70;1.00
3860;DHT22;1945;52.036;8.614;2023-06-14T15:24:15;23.60;1.00
3860;DHT22;1945;52.036;8.614;2023-06-14T15:26:42;23.70;1.00
3860;DHT22;1945;52.036;8.614;2023-06-14T15:29:08;23.70;1.00
3860;DHT22;1945;52.036;8.614;2023-06-14T15:31:35;23.70;1.00
3860;DHT22;1945;52.036;8.614;2023-06-14T15:34:02;23.60;1.00
3860;DHT22;1945;52.036;8.614;2023-06-14T15:36:28;23.70;1.00
3860;DHT22;1945;52.036;8.614;2023-06-14T15:38:55;23.80;1.00
3860;DHT22;1945;52.036;8.614;2023-06-14T15:41:23;23.80;1.00
3860;DHT22;1945;52.036;8.614;2023-06-14T15:43:50;23.70;1.00
3860;DHT22;1945;52.036;8.614;2023-06-14T15:46:21;23.90;1.00
3860;DHT22;1945;52.036;8.614;2023-06-14T15:48:47;23.50;1.00
3860;DHT22;1945;52.036;8.614;2023-06-14T15:51:15;23.60;1.00
3860;DHT22;1945;52.036;8.614;2023-06-14T15:53:42;23.70;1.00
3860;DHT22;1945;52.036;8.614;2023-06-14T15:56:09;23.80;1.00
3860;DHT22;1945;52.036;8.614;2023-06-14T15:58:37;23.80;1.00
3860;DHT22;1945;52.036;8.614;2023-06-14T16:01:04;23.80;1.00
3860;DHT22;1945;52.036;8.614;2023-06-14T16:03:31;23.70;1.00
3860;DHT22;1945;52.036;8.614;2023-06-14T16:05:57;23.70;1.00
3860;DHT22;1945;52.036;8.614;2023-06-14T16:08:24;23.80;1.00
3860;DHT22;1945;52.036;8.614;2023-06-14T16:10:50;23.90;1.00
3860;DHT22;1945;52.036;8.614;2023-06-14T16:13:17;23.80;1.00
3860;DHT22;1945;52.036;8.614;2023-06-14T16:15:45;23.70;1.00
3860;DHT22;1945;52.036;8.614;2023-06-14T16:18:12;23.50;1.00
3860;DHT22;1945;52.036;8.614;2023-06-14T16:20:38;23.40;1.00
3860;DHT22;1945;52.036;8.614;2023-06-14T16:23:05;23.40;1.00